sensor_id;sensor_type;location;lat;lon;timestamp;P1;durP1;ratioP1;P2;durP2;ratioP2
23252;SDS011;11795;47.054;15.408;2022-12-16T00:00:51;76.8;;;48.4;;
23252;SDS011;11795;47.054;15.408;2022-12-16T00:02:51;73.2;;;48.4;;
23252;SDS011;11795;47.054;15.408;2022-12-16T00:04:51;73.2;;;48.4;;
23252;SDS011;11795;47.054;15.408;2022-12-16T00:06:51;73.2;;;48.4;;
23252;SDS011;11795;47.054;15.408;2022-12-16T00:08:51;68.9;;;45.9;;
23252;SDS011;11795;47.054;15.408;2022-12-16T00:10:55;68.9;;;45.9;;
23252;SDS011;11795;47.054;15.408;2022-12-16T00:12:51;65.3;;;42.9;;
23252;SDS011;11795;47.054;15.408;2022-12-16T00:14:51;65.3;;;42.9;;
23252;SDS011;11795;47.054;15.408;2022-12-16T00:16:51;65.3;;;42.9;;
23252;SDS011;11795;47.054;15.408;2022-12-16T00:18:51;66.1;;;44.0;;
23252;SDS011;11795;47.054;15.408;2022-12-16T00:20:51;66.1;;;44.0;;
23252;SDS011;11795;47.054;15.408;2022-12-16T00:22:51;62.1;;;42.4;;
23252;SDS011;11795;47.054;15.408;2022-12-16T00:24:51;62.1;;;42.4;;
23252;SDS011;11795;47.054;15.408;2022-12-16T00:26:51;62.1;;;42.4;;
23252;SDS011;11795;47.054;15.408;2022-12-16T00:28:51;58.2;;;39.9;;
23252;SDS011;11795;47.054;15.408;2022-12-16T00:30:52;58.2;;;39.9;;
23252;SDS011;11795;47.054;15.408;2022-12-16T00:32:51;58.8;;;40.4;;
23252;SDS011;11795;47.054;15.408;2022-12-16T00:34:51;58.8;;;40.4;;
23252;SDS011;11795;47.054;15.408;2022-12-16T00:36:51;58.8;;;40.4;;
23252;SDS011;11795;47.054;15.408;2022-12-16T00:38:51;68.9;;;44.5;;
23252;SDS011;11795;47.054;15.408;2022-12-16T00:40:51;68.9;;;44.5;;
23252;SDS011;11795;47.054;15.408;2022-12-16T00:42:51;63.3;;;41.7;;
23252;SDS011;11795;47.054;15.408;2022-12-16T00:44:51;63.3;;;41.7;;
23252;SDS011;11795;47.054;15.408;2022-12-16T00:46:51;63.3;;;41.7;;
23252;SDS011;11795;47.054;15.408;2022-12-16T00:48:51;67.1;;;45.5;;
23252;SDS011;11795;47.054;15.408;2022-12-16T00:50:51;67.1;;;45.5;;
23252;SDS011;11795;47.054;15.408;2022-12-16T00:52:51;68.4;;;46.1;;
23252;SDS011;11795;47.054;15.408;2022-12-16T00:54:51;68.4;;;46.1;;
23252;SDS011;11795;47.054;15.408;2022-12-16T00:56:51;68.4;;;46.1;;
23252;SDS011;11795;47.054;15.408;2022-12-16T00:58:51;64.5;;;44.9;;
23252;SDS011;11795;47.054;15.408;2022-12-16T01:00:51;64.5;;;44.9;;
23252;SDS011;11795;47.054;15.408;2022-12-16T01:02:51;67.8;;;45.8;;
23252;SDS011;11795;47.054;15.408;2022-12-16T01:04:51;67.8;;;45.8;;
23252;SDS011;11795;47.054;15.408;2022-12-16T01:06:51;67.8;;;45.8;;
23252;SDS011;11795;47.054;15.408;2022-12-16T01:08:51;64.8;;;44.0;;
23252;SDS011;11795;47.054;15.408;2022-12-16T01:10:51;64.8;;;44.0;;
23252;SDS011;11795;47.054;15.408;2022-12-16T01:12:51;63.1;;;43.7;;
23252;SDS011;11795;47.054;15.408;2022-12-16T01:14:51;63.1;;;43.7;;
23252;SDS011;11795;47.054;15.408;2022-12-16T01:16:51;63.1;;;43.7;;
23252;SDS011;11795;47.054;15.408;2022-12-16T01:18:52;62.2;;;41.8;;
23252;SDS011;11795;47.054;15.408;2022-12-16T01:20:51;62.2;;;41.8;;
23252;SDS011;11795;47.054;15.408;2022-12-16T01:22:51;60.7;;;41.5;;
23252;SDS011;11795;47.054;15.408;2022-12-16T01:24:51;60.7;;;41.5;;
23252;SDS011;11795;47.054;15.408;2022-12-16T01:26:51;60.7;;;41.5;;
23252;SDS011;11795;47.054;15.408;2022-12-16T01:28:51;58.3;;;40.7;;
23252;SDS011;11795;47.054;15.408;2022-12-16T01:30:53;58.3;;;40.7;;
23252;SDS011;11795;47.054;15.408;2022-12-16T01:32:51;59.0;;;42.1;;
23252;SDS011;11795;47.054;15.408;2022-12-16T01:34:51;59.0;;;42.1;;
23252;SDS011;11795;47.054;15.408;2022-12-16T01:36:51;59.0;;;42.1;;
23252;SDS011;11795;47.054;15.408;2022-12-16T01:38:51;64.5;;;42.2;;
23252;SDS011;11795;47.054;15.408;2022-12-16T01:40:51;64.5;;;42.2;;
23252;SDS011;11795;47.054;15.408;2022-12-16T01:42:51;61.9;;;42.9;;
23252;SDS011;11795;47.054;15.408;2022-12-16T01:44:53;61.9;;;42.9;;
23252;SDS011;11795;47.054;15.408;2022-12-16T01:46:52;61.9;;;42.9;;
23252;SDS011;11795;47.054;15.408;2022-12-16T01:48:52;60.8;;;41.1;;
23252;SDS011;11795;47.054;15.408;2022-12-16T01:50:58;60.8;;;41.1;;
23252;SDS011;11795;47.054;15.408;2022-12-16T01:52:52;63.8;;;42.7;;
23252;SDS011;11795;47.054;15.408;2022-12-16T01:54:52;63.8;;;42.7;;
23252;SDS011;11795;47.054;15.408;2022-12-16T01:56:52;63.8;;;42.7;;
23252;SDS011;11795;47.054;15.408;2022-12-16T01:58:51;60.8;;;42.9;;
23252;SDS011;11795;47.054;15.408;2022-12-16T02:00:51;60.8;;;42.9;;
23252;SDS011;11795;47.054;15.408;2022-12-16T02:02:51;65.2;;;45.2;;
23252;SDS011;11795;47.054;15.408;2022-12-16T02:05:01;65.2;;;45.2;;
23252;SDS011;11795;47.054;15.408;2022-12-16T02:06:51;65.2;;;45.2;;
23252;SDS011;11795;47.054;15.408;2022-12-16T02:08:52;60.4;;;42.2;;
23252;SDS011;11795;47.054;15.408;2022-12-16T02:10:58;60.4;;;42.2;;
23252;SDS011;11795;47.054;15.408;2022-12-16T02:12:53;69.3;;;45.7;;
23252;SDS011;11795;47.054;15.408;2022-12-16T02:14:57;69.3;;;45.7;;
23252;SDS011;11795;47.054;15.408;2022-12-16T02:16:53;69.3;;;45.7;;
23252;SDS011;11795;47.054;15.408;2022-12-16T02:18:52;64.5;;;44.8;;
23252;SDS011;11795;47.054;15.408;2022-12-16T02:21:01;64.5;;;44.8;;
23252;SDS011;11795;47.054;15.408;2022-12-16T02:22:57;69.7;;;46.8;;
23252;SDS011;11795;47.054;15.408;2022-12-16T02:24:57;69.7;;;46.8;;
23252;SDS011;11795;47.054;15.408;2022-12-16T02:26:56;69.7;;;46.8;;
23252;SDS011;11795;47.054;15.408;2022-12-16T02:28:58;67.5;;;46.5;;
23252;SDS011;11795;47.054;15.408;2022-12-16T02:32:52;69.6;;;47.0;;
23252;SDS011;11795;47.054;15.408;2022-12-16T02:34:52;69.6;;;47.0;;
23252;SDS011;11795;47.054;15.408;2022-12-16T02:36:55;69.6;;;47.0;;
23252;SDS011;11795;47.054;15.408;2022-12-16T02:38:53;64.0;;;44.1;;
23252;SDS011;11795;47.054;15.408;2022-12-16T02:40:52;64.0;;;44.1;;
23252;SDS011;11795;47.054;15.408;2022-12-16T02:42:52;61.5;;;43.3;;
23252;SDS011;11795;47.054;15.408;2022-12-16T02:44:52;61.5;;;43.3;;
23252;SDS011;11795;47.054;15.408;2022-12-16T02:46:53;61.5;;;43.3;;
23252;SDS011;11795;47.054;15.408;2022-12-16T02:48:51;56.8;;;40.3;;
23252;SDS011;11795;47.054;15.408;2022-12-16T02:50:51;56.8;;;40.3;;
23252;SDS011;11795;47.054;15.408;2022-12-16T02:52:51;52.6;;;39.0;;
23252;SDS011;11795;47.054;15.408;2022-12-16T02:54:52;52.6;;;39.0;;
23252;SDS011;11795;47.054;15.408;2022-12-16T02:56:53;52.6;;;39.0;;
23252;SDS011;11795;47.054;15.408;2022-12-16T02:58:53;56.8;;;40.7;;
23252;SDS011;11795;47.054;15.408;2022-12-16T03:00:54;56.8;;;40.7;;
23252;SDS011;11795;47.054;15.408;2022-12-16T03:02:53;59.8;;;42.4;;
23252;SDS011;11795;47.054;15.408;2022-12-16T03:04:51;59.8;;;42.4;;
23252;SDS011;11795;47.054;15.408;2022-12-16T03:06:51;59.8;;;42.4;;
23252;SDS011;11795;47.054;15.408;2022-12-16T03:08:52;61.9;;;42.5;;
23252;SDS011;11795;47.054;15.408;2022-12-16T03:10:52;61.9;;;42.5;;
23252;SDS011;11795;47.054;15.408;2022-12-16T03:12:51;62.2;;;43.5;;
23252;SDS011;11795;47.054;15.408;2022-12-16T03:14:51;62.2;;;43.5;;
23252;SDS011;11795;47.054;15.408;2022-12-16T03:16:51;62.2;;;43.5;;
23252;SDS011;11795;47.054;15.408;2022-12-16T03:18:52;66.3;;;45.0;;
23252;SDS011;11795;47.054;15.408;2022-12-16T03:20:52;66.3;;;45.0;;
23252;SDS011;11795;47.054;15.408;2022-12-16T03:22:51;64.7;;;45.1;;
23252;SDS011;11795;47.054;15.408;2022-12-16T03:24:51;64.7;;;45.1;;
23252;SDS011;11795;47.054;15.408;2022-12-16T03:26:54;64.7;;;45.1;;
23252;SDS011;11795;47.054;15.408;2022-12-16T03:28:53;64.1;;;43.9;;
23252;SDS011;11795;47.054;15.408;2022-12-16T03:30:52;64.1;;;43.9;;
23252;SDS011;11795;47.054;15.408;2022-12-16T03:32:54;60.9;;;43.3;;
23252;SDS011;11795;47.054;15.408;2022-12-16T03:34:52;60.9;;;43.3;;
23252;SDS011;11795;47.054;15.408;2022-12-16T03:36:52;60.9;;;43.3;;
23252;SDS011;11795;47.054;15.408;2022-12-16T03:38:51;60.6;;;42.3;;
23252;SDS011;11795;47.054;15.408;2022-12-16T03:40:51;60.6;;;42.3;;
23252;SDS011;11795;47.054;15.408;2022-12-16T03:42:51;66.7;;;44.4;;
23252;SDS011;11795;47.054;15.408;2022-12-16T03:44:51;66.7;;;44.4;;
23252;SDS011;11795;47.054;15.408;2022-12-16T03:46:51;66.7;;;44.4;;
23252;SDS011;11795;47.054;15.408;2022-12-16T03:48:51;68.8;;;44.7;;
23252;SDS011;11795;47.054;15.408;2022-12-16T03:50:51;68.8;;;44.7;;
23252;SDS011;11795;47.054;15.408;2022-12-16T03:52:51;70.1;;;46.9;;
23252;SDS011;11795;47.054;15.408;2022-12-16T03:54:51;70.1;;;46.9;;
23252;SDS011;11795;47.054;15.408;2022-12-16T03:56:51;70.1;;;46.9;;
23252;SDS011;11795;47.054;15.408;2022-12-16T03:58:51;68.9;;;46.6;;
23252;SDS011;11795;47.054;15.408;2022-12-16T04:00:51;68.9;;;46.6;;
23252;SDS011;11795;47.054;15.408;2022-12-16T04:02:51;69.6;;;46.7;;
23252;SDS011;11795;47.054;15.408;2022-12-16T04:04:51;69.6;;;46.7;;
23252;SDS011;11795;47.054;15.408;2022-12-16T04:07:01;69.6;;;46.7;;
23252;SDS011;11795;47.054;15.408;2022-12-16T04:08:51;74.8;;;48.3;;
23252;SDS011;11795;47.054;15.408;2022-12-16T04:11:01;74.8;;;48.3;;
23252;SDS011;11795;47.054;15.408;2022-12-16T04:13:01;74.3;;;47.4;;
23252;SDS011;11795;47.054;15.408;2022-12-16T04:15:01;74.3;;;47.4;;
23252;SDS011;11795;47.054;15.408;2022-12-16T04:17:01;74.3;;;47.4;;
23252;SDS011;11795;47.054;15.408;2022-12-16T04:19:01;66.6;;;44.1;;
23252;SDS011;11795;47.054;15.408;2022-12-16T04:21:01;66.6;;;44.1;;
23252;SDS011;11795;47.054;15.408;2022-12-16T04:23:01;70.4;;;45.1;;
23252;SDS011;11795;47.054;15.408;2022-12-16T04:24:51;70.4;;;45.1;;
23252;SDS011;11795;47.054;15.408;2022-12-16T04:27:01;70.4;;;45.1;;
23252;SDS011;11795;47.054;15.408;2022-12-16T04:28:51;59.6;;;41.1;;
23252;SDS011;11795;47.054;15.408;2022-12-16T04:30:51;59.6;;;41.1;;
23252;SDS011;11795;47.054;15.408;2022-12-16T04:33:01;57.9;;;40.3;;
23252;SDS011;11795;47.054;15.408;2022-12-16T04:34:51;57.9;;;40.3;;
23252;SDS011;11795;47.054;15.408;2022-12-16T04:37:01;57.9;;;40.3;;
23252;SDS011;11795;47.054;15.408;2022-12-16T04:39:01;63.6;;;43.7;;
23252;SDS011;11795;47.054;15.408;2022-12-16T04:41:01;63.6;;;43.7;;
23252;SDS011;11795;47.054;15.408;2022-12-16T04:43:01;58.1;;;41.6;;
23252;SDS011;11795;47.054;15.408;2022-12-16T04:45:01;58.1;;;41.6;;
23252;SDS011;11795;47.054;15.408;2022-12-16T04:47:01;58.1;;;41.6;;
23252;SDS011;11795;47.054;15.408;2022-12-16T04:49:01;67.0;;;44.8;;
23252;SDS011;11795;47.054;15.408;2022-12-16T04:51:01;67.0;;;44.8;;
23252;SDS011;11795;47.054;15.408;2022-12-16T04:53:01;67.9;;;46.1;;
23252;SDS011;11795;47.054;15.408;2022-12-16T04:55:01;67.9;;;46.1;;
23252;SDS011;11795;47.054;15.408;2022-12-16T04:57:01;67.9;;;46.1;;
23252;SDS011;11795;47.054;15.408;2022-12-16T04:59:01;66.0;;;45.3;;
23252;SDS011;11795;47.054;15.408;2022-12-16T05:01:01;66.0;;;45.3;;
23252;SDS011;11795;47.054;15.408;2022-12-16T05:03:01;66.3;;;45.2;;
23252;SDS011;11795;47.054;15.408;2022-12-16T05:05:01;66.3;;;45.2;;
23252;SDS011;11795;47.054;15.408;2022-12-16T05:07:01;66.3;;;45.2;;
23252;SDS011;11795;47.054;15.408;2022-12-16T05:09:01;68.1;;;46.4;;
23252;SDS011;11795;47.054;15.408;2022-12-16T05:11:01;68.1;;;46.4;;
23252;SDS011;11795;47.054;15.408;2022-12-16T05:13:01;57.2;;;40.5;;
23252;SDS011;11795;47.054;15.408;2022-12-16T05:15:01;57.2;;;40.5;;
23252;SDS011;11795;47.054;15.408;2022-12-16T05:17:01;57.2;;;40.5;;
23252;SDS011;11795;47.054;15.408;2022-12-16T05:19:01;62.3;;;44.5;;
23252;SDS011;11795;47.054;15.408;2022-12-16T05:21:01;62.3;;;44.5;;
23252;SDS011;11795;47.054;15.408;2022-12-16T05:23:01;64.5;;;43.1;;
23252;SDS011;11795;47.054;15.408;2022-12-16T05:25:01;64.5;;;43.1;;
23252;SDS011;11795;47.054;15.408;2022-12-16T05:27:01;64.5;;;43.1;;
23252;SDS011;11795;47.054;15.408;2022-12-16T05:29:01;68.2;;;45.3;;
23252;SDS011;11795;47.054;15.408;2022-12-16T05:31:01;68.2;;;45.3;;
23252;SDS011;11795;47.054;15.408;2022-12-16T05:33:01;68.0;;;45.6;;
23252;SDS011;11795;47.054;15.408;2022-12-16T05:35:01;68.0;;;45.6;;
23252;SDS011;11795;47.054;15.408;2022-12-16T05:37:01;68.0;;;45.6;;
23252;SDS011;11795;47.054;15.408;2022-12-16T05:39:01;66.1;;;44.7;;
23252;SDS011;11795;47.054;15.408;2022-12-16T05:41:01;66.1;;;44.7;;
23252;SDS011;11795;47.054;15.408;2022-12-16T05:43:01;64.6;;;44.9;;
23252;SDS011;11795;47.054;15.408;2022-12-16T05:45:01;64.6;;;44.9;;
23252;SDS011;11795;47.054;15.408;2022-12-16T05:47:01;64.6;;;44.9;;
23252;SDS011;11795;47.054;15.408;2022-12-16T05:49:01;70.1;;;46.3;;
23252;SDS011;11795;47.054;15.408;2022-12-16T05:51:01;70.1;;;46.3;;
23252;SDS011;11795;47.054;15.408;2022-12-16T05:53:01;70.9;;;47.6;;
23252;SDS011;11795;47.054;15.408;2022-12-16T05:55:01;70.9;;;47.6;;
23252;SDS011;11795;47.054;15.408;2022-12-16T05:57:01;70.9;;;47.6;;
23252;SDS011;11795;47.054;15.408;2022-12-16T05:59:01;75.9;;;48.8;;
23252;SDS011;11795;47.054;15.408;2022-12-16T06:01:01;75.9;;;48.8;;
23252;SDS011;11795;47.054;15.408;2022-12-16T06:03:01;75.4;;;49.5;;
23252;SDS011;11795;47.054;15.408;2022-12-16T06:05:01;75.4;;;49.5;;
23252;SDS011;11795;47.054;15.408;2022-12-16T06:07:01;75.4;;;49.5;;
23252;SDS011;11795;47.054;15.408;2022-12-16T06:09:01;76.8;;;50.5;;
23252;SDS011;11795;47.054;15.408;2022-12-16T06:11:01;76.8;;;50.5;;
23252;SDS011;11795;47.054;15.408;2022-12-16T06:13:01;78.3;;;50.8;;
23252;SDS011;11795;47.054;15.408;2022-12-16T06:15:01;78.3;;;50.8;;
23252;SDS011;11795;47.054;15.408;2022-12-16T06:17:01;78.3;;;50.8;;
23252;SDS011;11795;47.054;15.408;2022-12-16T06:19:01;77.5;;;50.6;;
23252;SDS011;11795;47.054;15.408;2022-12-16T06:21:01;77.5;;;50.6;;
23252;SDS011;11795;47.054;15.408;2022-12-16T06:23:01;73.7;;;48.6;;
23252;SDS011;11795;47.054;15.408;2022-12-16T06:25:01;73.7;;;48.6;;
23252;SDS011;11795;47.054;15.408;2022-12-16T06:27:01;73.7;;;48.6;;
23252;SDS011;11795;47.054;15.408;2022-12-16T06:29:01;68.2;;;46.2;;
23252;SDS011;11795;47.054;15.408;2022-12-16T06:31:01;68.2;;;46.2;;
23252;SDS011;11795;47.054;15.408;2022-12-16T06:33:01;75.3;;;50.4;;
23252;SDS011;11795;47.054;15.408;2022-12-16T06:35:01;75.3;;;50.4;;
23252;SDS011;11795;47.054;15.408;2022-12-16T06:37:01;75.3;;;50.4;;
23252;SDS011;11795;47.054;15.408;2022-12-16T06:39:01;67.9;;;46.3;;
23252;SDS011;11795;47.054;15.408;2022-12-16T06:41:01;67.9;;;46.3;;
23252;SDS011;11795;47.054;15.408;2022-12-16T06:43:01;70.9;;;47.9;;
23252;SDS011;11795;47.054;15.408;2022-12-16T06:45:01;70.9;;;47.9;;
23252;SDS011;11795;47.054;15.408;2022-12-16T06:47:01;70.9;;;47.9;;
23252;SDS011;11795;47.054;15.408;2022-12-16T06:49:01;74.1;;;50.3;;
23252;SDS011;11795;47.054;15.408;2022-12-16T06:51:01;74.1;;;50.3;;
23252;SDS011;11795;47.054;15.408;2022-12-16T06:53:01;89.9;;;60.0;;
23252;SDS011;11795;47.054;15.408;2022-12-16T06:55:01;89.9;;;60.0;;
23252;SDS011;11795;47.054;15.408;2022-12-16T06:57:01;89.9;;;60.0;;
23252;SDS011;11795;47.054;15.408;2022-12-16T06:59:01;82.4;;;55.6;;
23252;SDS011;11795;47.054;15.408;2022-12-16T07:01:01;82.4;;;55.6;;
23252;SDS011;11795;47.054;15.408;2022-12-16T07:03:01;83.1;;;53.6;;
23252;SDS011;11795;47.054;15.408;2022-12-16T07:05:02;83.1;;;53.6;;
23252;SDS011;11795;47.054;15.408;2022-12-16T07:07:01;83.1;;;53.6;;
23252;SDS011;11795;47.054;15.408;2022-12-16T07:09:02;76.2;;;52.0;;
23252;SDS011;11795;47.054;15.408;2022-12-16T07:11:01;76.2;;;52.0;;
23252;SDS011;11795;47.054;15.408;2022-12-16T07:13:01;66.3;;;46.5;;
23252;SDS011;11795;47.054;15.408;2022-12-16T07:15:01;66.3;;;46.5;;
23252;SDS011;11795;47.054;15.408;2022-12-16T07:17:01;66.3;;;46.5;;
23252;SDS011;11795;47.054;15.408;2022-12-16T07:19:01;73.5;;;49.6;;
23252;SDS011;11795;47.054;15.408;2022-12-16T07:21:01;73.5;;;49.6;;
23252;SDS011;11795;47.054;15.408;2022-12-16T07:23:01;70.2;;;49.8;;
23252;SDS011;11795;47.054;15.408;2022-12-16T07:25:01;70.2;;;49.8;;
23252;SDS011;11795;47.054;15.408;2022-12-16T07:27:01;70.2;;;49.8;;
23252;SDS011;11795;47.054;15.408;2022-12-16T07:29:01;78.8;;;52.0;;
23252;SDS011;11795;47.054;15.408;2022-12-16T07:31:01;78.8;;;52.0;;
23252;SDS011;11795;47.054;15.408;2022-12-16T07:33:01;74.3;;;50.0;;
23252;SDS011;11795;47.054;15.408;2022-12-16T07:35:01;74.3;;;50.0;;
23252;SDS011;11795;47.054;15.408;2022-12-16T07:37:01;74.3;;;50.0;;
23252;SDS011;11795;47.054;15.408;2022-12-16T07:39:01;73.3;;;49.4;;
23252;SDS011;11795;47.054;15.408;2022-12-16T07:41:01;73.3;;;49.4;;
23252;SDS011;11795;47.054;15.408;2022-12-16T07:43:01;71.1;;;48.2;;
23252;SDS011;11795;47.054;15.408;2022-12-16T07:45:01;71.1;;;48.2;;
23252;SDS011;11795;47.054;15.408;2022-12-16T07:47:01;71.1;;;48.2;;
23252;SDS011;11795;47.054;15.408;2022-12-16T07:49:01;68.1;;;47.8;;
23252;SDS011;11795;47.054;15.408;2022-12-16T07:51:01;68.1;;;47.8;;
23252;SDS011;11795;47.054;15.408;2022-12-16T07:53:01;69.7;;;48.4;;
23252;SDS011;11795;47.054;15.408;2022-12-16T07:55:01;69.7;;;48.4;;
23252;SDS011;11795;47.054;15.408;2022-12-16T07:57:01;69.7;;;48.4;;
23252;SDS011;11795;47.054;15.408;2022-12-16T07:59:01;68.5;;;47.4;;
23252;SDS011;11795;47.054;15.408;2022-12-16T08:01:01;68.5;;;47.4;;
23252;SDS011;11795;47.054;15.408;2022-12-16T08:03:01;68.6;;;46.7;;
23252;SDS011;11795;47.054;15.408;2022-12-16T08:05:01;68.6;;;46.7;;
23252;SDS011;11795;47.054;15.408;2022-12-16T08:07:01;68.6;;;46.7;;
23252;SDS011;11795;47.054;15.408;2022-12-16T08:09:01;75.3;;;50.7;;
23252;SDS011;11795;47.054;15.408;2022-12-16T08:11:01;75.3;;;50.7;;
23252;SDS011;11795;47.054;15.408;2022-12-16T08:13:01;74.4;;;50.9;;
23252;SDS011;11795;47.054;15.408;2022-12-16T08:15:01;74.4;;;50.9;;
23252;SDS011;11795;47.054;15.408;2022-12-16T08:17:01;74.4;;;50.9;;
23252;SDS011;11795;47.054;15.408;2022-12-16T08:19:01;71.0;;;49.4;;
23252;SDS011;11795;47.054;15.408;2022-12-16T08:21:01;71.0;;;49.4;;
23252;SDS011;11795;47.054;15.408;2022-12-16T08:23:01;65.7;;;45.8;;
23252;SDS011;11795;47.054;15.408;2022-12-16T08:25:01;65.7;;;45.8;;
23252;SDS011;11795;47.054;15.408;2022-12-16T08:27:01;65.7;;;45.8;;
23252;SDS011;11795;47.054;15.408;2022-12-16T08:29:02;71.5;;;48.9;;
23252;SDS011;11795;47.054;15.408;2022-12-16T08:31:01;71.5;;;48.9;;
23252;SDS011;11795;47.054;15.408;2022-12-16T08:33:01;66.2;;;47.5;;
23252;SDS011;11795;47.054;15.408;2022-12-16T08:35:02;66.2;;;47.5;;
23252;SDS011;11795;47.054;15.408;2022-12-16T08:37:02;66.2;;;47.5;;
23252;SDS011;11795;47.054;15.408;2022-12-16T08:39:01;61.4;;;43.7;;
23252;SDS011;11795;47.054;15.408;2022-12-16T08:41:01;61.4;;;43.7;;
23252;SDS011;11795;47.054;15.408;2022-12-16T08:43:02;67.8;;;48.0;;
23252;SDS011;11795;47.054;15.408;2022-12-16T08:45:01;67.8;;;48.0;;
23252;SDS011;11795;47.054;15.408;2022-12-16T08:47:02;67.8;;;48.0;;
23252;SDS011;11795;47.054;15.408;2022-12-16T08:49:01;68.6;;;47.9;;
23252;SDS011;11795;47.054;15.408;2022-12-16T08:51:02;68.6;;;47.9;;
23252;SDS011;11795;47.054;15.408;2022-12-16T08:53:02;67.3;;;48.6;;
23252;SDS011;11795;47.054;15.408;2022-12-16T08:55:01;67.3;;;48.6;;
23252;SDS011;11795;47.054;15.408;2022-12-16T08:57:01;67.3;;;48.6;;
23252;SDS011;11795;47.054;15.408;2022-12-16T08:59:01;70.7;;;49.0;;
23252;SDS011;11795;47.054;15.408;2022-12-16T09:01:01;70.7;;;49.0;;
23252;SDS011;11795;47.054;15.408;2022-12-16T09:03:01;72.7;;;49.2;;
23252;SDS011;11795;47.054;15.408;2022-12-16T09:05:01;72.7;;;49.2;;
23252;SDS011;11795;47.054;15.408;2022-12-16T09:07:01;72.7;;;49.2;;
23252;SDS011;11795;47.054;15.408;2022-12-16T09:09:02;74.1;;;49.9;;
23252;SDS011;11795;47.054;15.408;2022-12-16T09:11:01;74.1;;;49.9;;
23252;SDS011;11795;47.054;15.408;2022-12-16T09:13:05;74.0;;;50.9;;
23252;SDS011;11795;47.054;15.408;2022-12-16T09:15:02;74.0;;;50.9;;
23252;SDS011;11795;47.054;15.408;2022-12-16T09:17:01;74.0;;;50.9;;
23252;SDS011;11795;47.054;15.408;2022-12-16T09:19:01;78.1;;;53.4;;
23252;SDS011;11795;47.054;15.408;2022-12-16T09:21:01;78.1;;;53.4;;
23252;SDS011;11795;47.054;15.408;2022-12-16T09:23:02;74.1;;;50.4;;
23252;SDS011;11795;47.054;15.408;2022-12-16T09:25:02;74.1;;;50.4;;
23252;SDS011;11795;47.054;15.408;2022-12-16T09:27:01;74.1;;;50.4;;
23252;SDS011;11795;47.054;15.408;2022-12-16T09:29:01;72.8;;;50.4;;
23252;SDS011;11795;47.054;15.408;2022-12-16T09:31:01;72.8;;;50.4;;
23252;SDS011;11795;47.054;15.408;2022-12-16T09:33:01;73.4;;;50.9;;
23252;SDS011;11795;47.054;15.408;2022-12-16T09:35:02;73.4;;;50.9;;
23252;SDS011;11795;47.054;15.408;2022-12-16T09:37:02;73.4;;;50.9;;
23252;SDS011;11795;47.054;15.408;2022-12-16T09:39:01;71.1;;;49.0;;
23252;SDS011;11795;47.054;15.408;2022-12-16T09:41:08;71.1;;;49.0;;
23252;SDS011;11795;47.054;15.408;2022-12-16T09:43:03;74.0;;;50.3;;
23252;SDS011;11795;47.054;15.408;2022-12-16T09:45:02;74.0;;;50.3;;
23252;SDS011;11795;47.054;15.408;2022-12-16T09:47:03;74.0;;;50.3;;
23252;SDS011;11795;47.054;15.408;2022-12-16T09:49:04;73.5;;;51.7;;
23252;SDS011;11795;47.054;15.408;2022-12-16T09:51:02;73.5;;;51.7;;
23252;SDS011;11795;47.054;15.408;2022-12-16T09:53:02;72.5;;;51.5;;
23252;SDS011;11795;47.054;15.408;2022-12-16T09:55:02;72.5;;;51.5;;
23252;SDS011;11795;47.054;15.408;2022-12-16T09:57:01;72.5;;;51.5;;
23252;SDS011;11795;47.054;15.408;2022-12-16T09:59:04;69.6;;;47.3;;
23252;SDS011;11795;47.054;15.408;2022-12-16T10:01:02;69.6;;;47.3;;
23252;SDS011;11795;47.054;15.408;2022-12-16T10:03:02;62.8;;;46.1;;
23252;SDS011;11795;47.054;15.408;2022-12-16T10:05:02;62.8;;;46.1;;
23252;SDS011;11795;47.054;15.408;2022-12-16T10:07:02;62.8;;;46.1;;
23252;SDS011;11795;47.054;15.408;2022-12-16T10:09:04;72.5;;;50.4;;
23252;SDS011;11795;47.054;15.408;2022-12-16T10:11:03;72.5;;;50.4;;
23252;SDS011;11795;47.054;15.408;2022-12-16T10:13:03;75.7;;;53.0;;
23252;SDS011;11795;47.054;15.408;2022-12-16T10:15:03;75.7;;;53.0;;
23252;SDS011;11795;47.054;15.408;2022-12-16T10:17:03;75.7;;;53.0;;
23252;SDS011;11795;47.054;15.408;2022-12-16T10:19:04;68.9;;;49.9;;
23252;SDS011;11795;47.054;15.408;2022-12-16T10:21:02;68.9;;;49.9;;
23252;SDS011;11795;47.054;15.408;2022-12-16T10:23:03;68.3;;;49.6;;
23252;SDS011;11795;47.054;15.408;2022-12-16T10:25:03;68.3;;;49.6;;
23252;SDS011;11795;47.054;15.408;2022-12-16T10:27:02;68.3;;;49.6;;
23252;SDS011;11795;47.054;15.408;2022-12-16T10:29:03;66.9;;;46.9;;
23252;SDS011;11795;47.054;15.408;2022-12-16T10:31:02;66.9;;;46.9;;
23252;SDS011;11795;47.054;15.408;2022-12-16T10:33:03;70.5;;;49.3;;
23252;SDS011;11795;47.054;15.408;2022-12-16T10:35:02;70.5;;;49.3;;
23252;SDS011;11795;47.054;15.408;2022-12-16T10:37:02;70.5;;;49.3;;
23252;SDS011;11795;47.054;15.408;2022-12-16T10:39:04;69.7;;;49.2;;
23252;SDS011;11795;47.054;15.408;2022-12-16T10:41:02;69.7;;;49.2;;
23252;SDS011;11795;47.054;15.408;2022-12-16T10:43:03;71.7;;;50.1;;
23252;SDS011;11795;47.054;15.408;2022-12-16T10:45:02;71.7;;;50.1;;
23252;SDS011;11795;47.054;15.408;2022-12-16T10:47:02;71.7;;;50.1;;
23252;SDS011;11795;47.054;15.408;2022-12-16T10:49:02;70.0;;;49.9;;
23252;SDS011;11795;47.054;15.408;2022-12-16T10:51:02;70.0;;;49.9;;
23252;SDS011;11795;47.054;15.408;2022-12-16T10:53:02;68.3;;;48.7;;
23252;SDS011;11795;47.054;15.408;2022-12-16T10:55:04;68.3;;;48.7;;
23252;SDS011;11795;47.054;15.408;2022-12-16T10:57:03;68.3;;;48.7;;
23252;SDS011;11795;47.054;15.408;2022-12-16T10:59:02;69.0;;;48.6;;
23252;SDS011;11795;47.054;15.408;2022-12-16T11:01:02;69.0;;;48.6;;
23252;SDS011;11795;47.054;15.408;2022-12-16T11:05:02;65.5;;;47.8;;
23252;SDS011;11795;47.054;15.408;2022-12-16T11:07:02;65.5;;;47.8;;
23252;SDS011;11795;47.054;15.408;2022-12-16T11:11:03;64.3;;;46.7;;
23252;SDS011;11795;47.054;15.408;2022-12-16T11:13:08;60.8;;;44.0;;
23252;SDS011;11795;47.054;15.408;2022-12-16T11:15:07;60.8;;;44.0;;
23252;SDS011;11795;47.054;15.408;2022-12-16T11:17:10;60.8;;;44.0;;
23252;SDS011;11795;47.054;15.408;2022-12-16T11:19:02;61.4;;;45.6;;
23252;SDS011;11795;47.054;15.408;2022-12-16T11:21:09;61.4;;;45.6;;
23252;SDS011;11795;47.054;15.408;2022-12-16T11:23:06;62.7;;;45.4;;
23252;SDS011;11795;47.054;15.408;2022-12-16T11:25:04;62.7;;;45.4;;
23252;SDS011;11795;47.054;15.408;2022-12-16T11:27:02;62.7;;;45.4;;
23252;SDS011;11795;47.054;15.408;2022-12-16T11:29:03;62.1;;;45.3;;
23252;SDS011;11795;47.054;15.408;2022-12-16T11:31:03;62.1;;;45.3;;
23252;SDS011;11795;47.054;15.408;2022-12-16T11:33:05;61.5;;;44.8;;
23252;SDS011;11795;47.054;15.408;2022-12-16T11:35:02;61.5;;;44.8;;
23252;SDS011;11795;47.054;15.408;2022-12-16T11:37:02;61.5;;;44.8;;
23252;SDS011;11795;47.054;15.408;2022-12-16T11:39:02;64.0;;;44.5;;
23252;SDS011;11795;47.054;15.408;2022-12-16T11:41:02;64.0;;;44.5;;
23252;SDS011;11795;47.054;15.408;2022-12-16T11:43:02;61.4;;;44.7;;
23252;SDS011;11795;47.054;15.408;2022-12-16T11:45:02;61.4;;;44.7;;
23252;SDS011;11795;47.054;15.408;2022-12-16T11:47:03;61.4;;;44.7;;
23252;SDS011;11795;47.054;15.408;2022-12-16T11:49:02;70.0;;;48.6;;
23252;SDS011;11795;47.054;15.408;2022-12-16T11:51:02;70.0;;;48.6;;
23252;SDS011;11795;47.054;15.408;2022-12-16T11:53:02;69.2;;;47.9;;
23252;SDS011;11795;47.054;15.408;2022-12-16T11:55:05;69.2;;;47.9;;
23252;SDS011;11795;47.054;15.408;2022-12-16T11:57:02;69.2;;;47.9;;